Irvington, VA (22480)

10:58 PM EDT on September 02, 2015 (GMT -0400)
Sanders Cove | | Change Station
CLOSE
Current Station
Personal Weather Station
Location: White Stone, VA
Elevation: 49 ft
Nearby Weather Stations

Elev 49 ft 37.64 °N, 76.42 °W | Updated 32 seconds ago

Mostly Cloudy
Mostly Cloudy
75.2 °F
Feels Like 76 °F
N
0.0
Wind Variable Wind from NNW
Gusts 0.0 mph

Today
High -- | Low -- °F
--% Chance of Precip.
Yesterday
High -- | Low -- °F
Precip. -- in
6:36 AM 7:33 PM
Waning Gibbous, 75% visible
Pressure 29.96 in
Visibility 10.0 miles
Clouds Scattered Clouds 12000 ft
Heat Index 76 °F
Dew Point 67 °F
Humidity 76%
Rainfall 0.00 in
Snow Depth Not available.
UV 0 out of 12
Pollen 9.60 out of 12
Air Quality Not available.
Flu Activity Not available.
METAR KFYJ 030255Z AUTO 00000KT 10SM SCT120 24/22 A2996 RMK AO2 T02420216
Pressure 29.96 in
Visibility 10.0 miles
Clouds Scattered Clouds 12000 ft
Heat Index 76 °F
Dew Point 67 °F
Humidity 76%
Rainfall 0.00 in
Snow Depth Not available.
UV 0 out of 12
Pollen 9.60 out of 12
Air Quality Not available.
Flu Activity Not available.
METAR KFYJ 030255Z AUTO 00000KT 10SM SCT120 24/22 A2996 RMK AO2 T02420216

10-Day Weather Forecast

×

Almanac

Astronomy

Sep. 02, 2015 Rise Set
Actual Time
Civil Twilight
Nautical Twilight
Astronomical Twilight
Moon
Length of Visible Light
Length of Day
Tomorrow will be .
, % of the Moon is Illuminated

Today's Extremes

State Highs State Lows

Community

WunderPhotos

Upload Photos

1,851,879 photos uploaded!

WunderBlogs® & News

Nearby

Air Quality

  Air Quality AQ Index Pollutant
Not available.

Snow Depth

Station Depth Elevation

Earthquake Activity

City Distance Mag. Time & Date
Minimum magnitude displayed is 2.5.

Coastal Water Temperatures

Place Temperature

Stations

Nearby Weather Stations

Station Location Temp. Windchill Dew Point Humidity Wind Precip. Elev Updated Type